sensor_id;sensor_type;location;lat;lon;timestamp;P1;durP1;ratioP1;P2;durP2;ratioP2
50291;SDS011;36190;54.980;73.388;2022-08-19T00:01:19;3.38;;;1.10;;
50291;SDS011;36190;54.980;73.388;2022-08-19T00:03:47;3.20;;;1.27;;
50291;SDS011;36190;54.980;73.388;2022-08-19T00:06:14;1.20;;;1.10;;
50291;SDS011;36190;54.980;73.388;2022-08-19T00:08:43;1.83;;;1.55;;
50291;SDS011;36190;54.980;73.388;2022-08-19T00:11:11;1.55;;;1.35;;
50291;SDS011;36190;54.980;73.388;2022-08-19T00:13:39;2.30;;;1.60;;
50291;SDS011;36190;54.980;73.388;2022-08-19T00:16:06;4.70;;;1.75;;
50291;SDS011;36190;54.980;73.388;2022-08-19T00:18:34;1.77;;;1.40;;
50291;SDS011;36190;54.980;73.388;2022-08-19T00:21:02;2.28;;;1.27;;
50291;SDS011;36190;54.980;73.388;2022-08-19T00:23:33;4.38;;;1.98;;
50291;SDS011;36190;54.980;73.388;2022-08-19T00:26:03;3.65;;;1.70;;
50291;SDS011;36190;54.980;73.388;2022-08-19T00:28:31;2.60;;;1.52;;
50291;SDS011;36190;54.980;73.388;2022-08-19T00:31:01;3.85;;;2.00;;
50291;SDS011;36190;54.980;73.388;2022-08-19T00:33:29;2.90;;;1.70;;
50291;SDS011;36190;54.980;73.388;2022-08-19T00:35:57;2.90;;;1.50;;
50291;SDS011;36190;54.980;73.388;2022-08-19T00:38:25;3.20;;;1.60;;
50291;SDS011;36190;54.980;73.388;2022-08-19T00:40:53;4.72;;;2.00;;
50291;SDS011;36190;54.980;73.388;2022-08-19T00:43:23;3.10;;;1.77;;
50291;SDS011;36190;54.980;73.388;2022-08-19T00:45:53;2.70;;;1.73;;
50291;SDS011;36190;54.980;73.388;2022-08-19T00:48:21;2.10;;;1.60;;
50291;SDS011;36190;54.980;73.388;2022-08-19T00:50:49;1.80;;;1.50;;
50291;SDS011;36190;54.980;73.388;2022-08-19T00:53:20;5.10;;;1.83;;
50291;SDS011;36190;54.980;73.388;2022-08-19T00:55:52;4.22;;;1.60;;
50291;SDS011;36190;54.980;73.388;2022-08-19T00:58:24;4.35;;;1.60;;
50291;SDS011;36190;54.980;73.388;2022-08-19T01:00:55;3.10;;;1.63;;
50291;SDS011;36190;54.980;73.388;2022-08-19T01:03:22;3.65;;;1.75;;
50291;SDS011;36190;54.980;73.388;2022-08-19T01:05:50;3.63;;;1.23;;
50291;SDS011;36190;54.980;73.388;2022-08-19T01:08:20;3.47;;;1.58;;
50291;SDS011;36190;54.980;73.388;2022-08-19T01:10:49;1.35;;;1.25;;
50291;SDS011;36190;54.980;73.388;2022-08-19T01:13:19;4.50;;;2.13;;
50291;SDS011;36190;54.980;73.388;2022-08-19T01:15:50;2.17;;;1.60;;
50291;SDS011;36190;54.980;73.388;2022-08-19T01:18:21;4.00;;;1.60;;
50291;SDS011;36190;54.980;73.388;2022-08-19T01:20:50;3.72;;;1.58;;
50291;SDS011;36190;54.980;73.388;2022-08-19T01:23:20;5.18;;;2.00;;
50291;SDS011;36190;54.980;73.388;2022-08-19T01:26:07;4.75;;;1.98;;
50291;SDS011;36190;54.980;73.388;2022-08-19T01:28:36;2.47;;;1.60;;
50291;SDS011;36190;54.980;73.388;2022-08-19T01:31:04;5.80;;;2.30;;
50291;SDS011;36190;54.980;73.388;2022-08-19T01:33:32;4.55;;;2.00;;
50291;SDS011;36190;54.980;73.388;2022-08-19T01:36:04;3.55;;;1.80;;
50291;SDS011;36190;54.980;73.388;2022-08-19T01:38:35;4.47;;;1.63;;
50291;SDS011;36190;54.980;73.388;2022-08-19T01:41:03;8.32;;;2.20;;
50291;SDS011;36190;54.980;73.388;2022-08-19T01:43:32;4.15;;;1.42;;
50291;SDS011;36190;54.980;73.388;2022-08-19T01:46:00;5.63;;;2.00;;
50291;SDS011;36190;54.980;73.388;2022-08-19T01:48:32;7.82;;;1.80;;
50291;SDS011;36190;54.980;73.388;2022-08-19T01:51:00;2.15;;;1.60;;
50291;SDS011;36190;54.980;73.388;2022-08-19T01:53:28;8.13;;;1.98;;
50291;SDS011;36190;54.980;73.388;2022-08-19T01:55:57;6.10;;;1.88;;
50291;SDS011;36190;54.980;73.388;2022-08-19T01:58:26;2.45;;;1.60;;
50291;SDS011;36190;54.980;73.388;2022-08-19T02:00:57;3.83;;;1.75;;
50291;SDS011;36190;54.980;73.388;2022-08-19T02:03:24;6.72;;;1.98;;
50291;SDS011;36190;54.980;73.388;2022-08-19T02:05:55;2.40;;;1.67;;
50291;SDS011;36190;54.980;73.388;2022-08-19T02:08:25;4.10;;;2.00;;
50291;SDS011;36190;54.980;73.388;2022-08-19T02:10:52;6.20;;;2.10;;
50291;SDS011;36190;54.980;73.388;2022-08-19T02:13:22;6.28;;;1.95;;
50291;SDS011;36190;54.980;73.388;2022-08-19T02:15:50;2.55;;;2.10;;
50291;SDS011;36190;54.980;73.388;2022-08-19T02:18:17;5.55;;;2.17;;
50291;SDS011;36190;54.980;73.388;2022-08-19T02:20:45;3.22;;;2.03;;
50291;SDS011;36190;54.980;73.388;2022-08-19T02:23:13;7.55;;;2.53;;
50291;SDS011;36190;54.980;73.388;2022-08-19T02:25:42;5.25;;;2.20;;
50291;SDS011;36190;54.980;73.388;2022-08-19T02:28:10;8.40;;;2.60;;
50291;SDS011;36190;54.980;73.388;2022-08-19T02:30:40;6.38;;;2.30;;
50291;SDS011;36190;54.980;73.388;2022-08-19T02:33:08;4.63;;;2.25;;
50291;SDS011;36190;54.980;73.388;2022-08-19T02:35:35;6.40;;;2.70;;
50291;SDS011;36190;54.980;73.388;2022-08-19T02:38:02;5.55;;;2.30;;
50291;SDS011;36190;54.980;73.388;2022-08-19T02:40:48;6.70;;;2.53;;
50291;SDS011;36190;54.980;73.388;2022-08-19T02:43:18;8.40;;;2.67;;
50291;SDS011;36190;54.980;73.388;2022-08-19T02:45:48;5.03;;;2.30;;
50291;SDS011;36190;54.980;73.388;2022-08-19T02:48:16;4.55;;;2.13;;
50291;SDS011;36190;54.980;73.388;2022-08-19T02:50:45;7.43;;;2.55;;
50291;SDS011;36190;54.980;73.388;2022-08-19T02:53:13;12.70;;;3.08;;
50291;SDS011;36190;54.980;73.388;2022-08-19T02:55:44;6.18;;;2.50;;
50291;SDS011;36190;54.980;73.388;2022-08-19T02:58:12;4.75;;;2.20;;
50291;SDS011;36190;54.980;73.388;2022-08-19T03:00:42;6.50;;;2.30;;
50291;SDS011;36190;54.980;73.388;2022-08-19T03:03:12;5.72;;;2.28;;
50291;SDS011;36190;54.980;73.388;2022-08-19T03:05:39;9.60;;;2.65;;
50291;SDS011;36190;54.980;73.388;2022-08-19T03:08:07;14.52;;;3.13;;
50291;SDS011;36190;54.980;73.388;2022-08-19T03:10:40;7.82;;;2.15;;
50291;SDS011;36190;54.980;73.388;2022-08-19T03:13:11;4.55;;;2.30;;
50291;SDS011;36190;54.980;73.388;2022-08-19T03:15:40;13.32;;;2.83;;
50291;SDS011;36190;54.980;73.388;2022-08-19T03:18:09;10.57;;;3.20;;
50291;SDS011;36190;54.980;73.388;2022-08-19T03:20:42;4.55;;;1.92;;
50291;SDS011;36190;54.980;73.388;2022-08-19T03:23:10;5.55;;;2.20;;
50291;SDS011;36190;54.980;73.388;2022-08-19T03:25:39;4.38;;;2.20;;
50291;SDS011;36190;54.980;73.388;2022-08-19T03:28:08;5.40;;;2.17;;
50291;SDS011;36190;54.980;73.388;2022-08-19T03:30:36;10.15;;;2.65;;
50291;SDS011;36190;54.980;73.388;2022-08-19T03:33:04;7.25;;;2.50;;
50291;SDS011;36190;54.980;73.388;2022-08-19T03:35:34;5.20;;;2.17;;
50291;SDS011;36190;54.980;73.388;2022-08-19T03:38:02;4.15;;;2.08;;
50291;SDS011;36190;54.980;73.388;2022-08-19T03:40:29;5.95;;;2.60;;
50291;SDS011;36190;54.980;73.388;2022-08-19T03:42:57;8.07;;;2.75;;
50291;SDS011;36190;54.980;73.388;2022-08-19T03:45:24;7.05;;;2.53;;
50291;SDS011;36190;54.980;73.388;2022-08-19T03:47:52;9.68;;;2.92;;
50291;SDS011;36190;54.980;73.388;2022-08-19T03:50:20;8.48;;;2.38;;
50291;SDS011;36190;54.980;73.388;2022-08-19T03:52:49;10.63;;;3.47;;
50291;SDS011;36190;54.980;73.388;2022-08-19T03:55:18;8.02;;;3.00;;
50291;SDS011;36190;54.980;73.388;2022-08-19T03:57:45;6.85;;;2.97;;
50291;SDS011;36190;54.980;73.388;2022-08-19T04:00:14;9.07;;;2.88;;
50291;SDS011;36190;54.980;73.388;2022-08-19T04:02:42;7.97;;;2.75;;
50291;SDS011;36190;54.980;73.388;2022-08-19T04:05:09;9.23;;;2.67;;
50291;SDS011;36190;54.980;73.388;2022-08-19T04:07:38;10.23;;;3.10;;
50291;SDS011;36190;54.980;73.388;2022-08-19T04:10:07;7.63;;;2.70;;
50291;SDS011;36190;54.980;73.388;2022-08-19T04:12:34;7.65;;;2.70;;
50291;SDS011;36190;54.980;73.388;2022-08-19T04:15:02;8.25;;;2.90;;
50291;SDS011;36190;54.980;73.388;2022-08-19T04:17:31;8.65;;;3.00;;
50291;SDS011;36190;54.980;73.388;2022-08-19T04:19:59;9.23;;;3.30;;
50291;SDS011;36190;54.980;73.388;2022-08-19T04:22:26;10.73;;;3.35;;
50291;SDS011;36190;54.980;73.388;2022-08-19T04:24:55;8.75;;;3.17;;
50291;SDS011;36190;54.980;73.388;2022-08-19T04:27:24;9.77;;;3.30;;
50291;SDS011;36190;54.980;73.388;2022-08-19T04:29:51;9.43;;;3.30;;
50291;SDS011;36190;54.980;73.388;2022-08-19T04:32:19;7.85;;;2.90;;
50291;SDS011;36190;54.980;73.388;2022-08-19T04:34:47;6.85;;;2.65;;
50291;SDS011;36190;54.980;73.388;2022-08-19T04:37:14;7.35;;;2.42;;
50291;SDS011;36190;54.980;73.388;2022-08-19T04:39:42;7.47;;;2.50;;
50291;SDS011;36190;54.980;73.388;2022-08-19T04:45:08;11.40;;;2.85;;
50291;SDS011;36190;54.980;73.388;2022-08-19T04:47:36;7.90;;;2.80;;
50291;SDS011;36190;54.980;73.388;2022-08-19T04:50:04;5.35;;;2.45;;
50291;SDS011;36190;54.980;73.388;2022-08-19T04:52:33;7.93;;;2.53;;
50291;SDS011;36190;54.980;73.388;2022-08-19T04:55:00;6.88;;;2.42;;
50291;SDS011;36190;54.980;73.388;2022-08-19T04:57:29;7.85;;;2.70;;
50291;SDS011;36190;54.980;73.388;2022-08-19T04:59:57;8.18;;;2.72;;
50291;SDS011;36190;54.980;73.388;2022-08-19T05:02:24;8.45;;;2.60;;
50291;SDS011;36190;54.980;73.388;2022-08-19T05:04:56;5.45;;;2.20;;
50291;SDS011;36190;54.980;73.388;2022-08-19T05:07:25;6.50;;;2.38;;
50291;SDS011;36190;54.980;73.388;2022-08-19T05:09:53;7.60;;;2.58;;
50291;SDS011;36190;54.980;73.388;2022-08-19T05:12:20;6.72;;;2.50;;
50291;SDS011;36190;54.980;73.388;2022-08-19T05:14:49;9.75;;;2.90;;
50291;SDS011;36190;54.980;73.388;2022-08-19T05:17:17;10.20;;;3.05;;
50291;SDS011;36190;54.980;73.388;2022-08-19T05:19:44;7.75;;;2.35;;
50291;SDS011;36190;54.980;73.388;2022-08-19T05:22:29;6.38;;;2.20;;
50291;SDS011;36190;54.980;73.388;2022-08-19T05:25:02;7.03;;;2.55;;
50291;SDS011;36190;54.980;73.388;2022-08-19T05:27:32;6.32;;;2.55;;
50291;SDS011;36190;54.980;73.388;2022-08-19T05:30:02;5.13;;;2.45;;
50291;SDS011;36190;54.980;73.388;2022-08-19T05:32:30;8.65;;;2.60;;
50291;SDS011;36190;54.980;73.388;2022-08-19T05:34:58;5.88;;;2.50;;
50291;SDS011;36190;54.980;73.388;2022-08-19T05:37:25;3.80;;;2.10;;
50291;SDS011;36190;54.980;73.388;2022-08-19T05:39:53;11.57;;;2.40;;
50291;SDS011;36190;54.980;73.388;2022-08-19T05:42:21;6.05;;;1.95;;
50291;SDS011;36190;54.980;73.388;2022-08-19T05:44:49;5.40;;;2.38;;
50291;SDS011;36190;54.980;73.388;2022-08-19T05:47:19;5.28;;;2.33;;
50291;SDS011;36190;54.980;73.388;2022-08-19T05:49:47;3.42;;;2.03;;
50291;SDS011;36190;54.980;73.388;2022-08-19T05:52:15;5.13;;;2.42;;
50291;SDS011;36190;54.980;73.388;2022-08-19T05:54:42;6.75;;;2.45;;
50291;SDS011;36190;54.980;73.388;2022-08-19T05:57:13;4.97;;;1.92;;
50291;SDS011;36190;54.980;73.388;2022-08-19T05:59:41;7.50;;;2.20;;
50291;SDS011;36190;54.980;73.388;2022-08-19T06:02:09;5.47;;;2.10;;
50291;SDS011;36190;54.980;73.388;2022-08-19T06:04:38;3.88;;;2.05;;
50291;SDS011;36190;54.980;73.388;2022-08-19T06:07:08;4.32;;;2.00;;
50291;SDS011;36190;54.980;73.388;2022-08-19T06:09:35;4.57;;;1.95;;
50291;SDS011;36190;54.980;73.388;2022-08-19T06:12:03;2.28;;;1.88;;
50291;SDS011;36190;54.980;73.388;2022-08-19T06:14:32;6.68;;;2.42;;
50291;SDS011;36190;54.980;73.388;2022-08-19T06:17:00;7.32;;;1.90;;
50291;SDS011;36190;54.980;73.388;2022-08-19T06:19:29;5.28;;;2.30;;
50291;SDS011;36190;54.980;73.388;2022-08-19T06:21:59;6.53;;;2.10;;
50291;SDS011;36190;54.980;73.388;2022-08-19T06:24:27;5.38;;;2.13;;
50291;SDS011;36190;54.980;73.388;2022-08-19T06:26:57;6.55;;;2.20;;
50291;SDS011;36190;54.980;73.388;2022-08-19T06:29:25;5.72;;;2.58;;
50291;SDS011;36190;54.980;73.388;2022-08-19T06:31:56;4.93;;;2.40;;
50291;SDS011;36190;54.980;73.388;2022-08-19T06:34:25;5.22;;;2.50;;
50291;SDS011;36190;54.980;73.388;2022-08-19T06:36:54;4.55;;;2.25;;
50291;SDS011;36190;54.980;73.388;2022-08-19T06:39:24;4.75;;;2.15;;
50291;SDS011;36190;54.980;73.388;2022-08-19T06:41:54;4.97;;;2.35;;
50291;SDS011;36190;54.980;73.388;2022-08-19T06:44:24;4.30;;;2.15;;
50291;SDS011;36190;54.980;73.388;2022-08-19T06:46:53;6.47;;;2.50;;
50291;SDS011;36190;54.980;73.388;2022-08-19T06:49:21;3.03;;;1.85;;
50291;SDS011;36190;54.980;73.388;2022-08-19T06:51:52;5.57;;;2.25;;
50291;SDS011;36190;54.980;73.388;2022-08-19T06:54:21;5.63;;;2.20;;
50291;SDS011;36190;54.980;73.388;2022-08-19T06:56:51;5.72;;;2.08;;
50291;SDS011;36190;54.980;73.388;2022-08-19T06:59:19;3.42;;;2.08;;
50291;SDS011;36190;54.980;73.388;2022-08-19T07:01:48;8.77;;;2.55;;
50291;SDS011;36190;54.980;73.388;2022-08-19T07:04:18;4.32;;;2.40;;
50291;SDS011;36190;54.980;73.388;2022-08-19T07:06:47;7.65;;;2.50;;
50291;SDS011;36190;54.980;73.388;2022-08-19T07:09:15;7.50;;;3.38;;
50291;SDS011;36190;54.980;73.388;2022-08-19T07:11:46;10.25;;;3.22;;
50291;SDS011;36190;54.980;73.388;2022-08-19T07:14:16;8.02;;;2.78;;
50291;SDS011;36190;54.980;73.388;2022-08-19T07:16:45;13.05;;;2.92;;
50291;SDS011;36190;54.980;73.388;2022-08-19T07:19:13;8.18;;;2.47;;
50291;SDS011;36190;54.980;73.388;2022-08-19T07:21:41;7.53;;;2.45;;
50291;SDS011;36190;54.980;73.388;2022-08-19T07:24:09;8.70;;;3.00;;
50291;SDS011;36190;54.980;73.388;2022-08-19T07:26:38;3.70;;;2.00;;
50291;SDS011;36190;54.980;73.388;2022-08-19T07:29:09;4.78;;;2.40;;
50291;SDS011;36190;54.980;73.388;2022-08-19T07:31:37;8.38;;;2.80;;
50291;SDS011;36190;54.980;73.388;2022-08-19T07:34:06;7.10;;;2.60;;
50291;SDS011;36190;54.980;73.388;2022-08-19T07:36:40;8.73;;;2.58;;
50291;SDS011;36190;54.980;73.388;2022-08-19T07:39:09;5.78;;;2.67;;
50291;SDS011;36190;54.980;73.388;2022-08-19T07:41:39;5.82;;;2.63;;
50291;SDS011;36190;54.980;73.388;2022-08-19T07:44:07;6.88;;;2.70;;
50291;SDS011;36190;54.980;73.388;2022-08-19T07:46:39;10.15;;;2.70;;
50291;SDS011;36190;54.980;73.388;2022-08-19T07:49:08;6.22;;;2.45;;
50291;SDS011;36190;54.980;73.388;2022-08-19T07:51:42;7.68;;;2.50;;
50291;SDS011;36190;54.980;73.388;2022-08-19T07:54:10;7.97;;;2.90;;
50291;SDS011;36190;54.980;73.388;2022-08-19T07:56:38;8.98;;;2.92;;
50291;SDS011;36190;54.980;73.388;2022-08-19T07:59:05;6.90;;;2.70;;
50291;SDS011;36190;54.980;73.388;2022-08-19T08:01:34;6.53;;;2.40;;
50291;SDS011;36190;54.980;73.388;2022-08-19T08:04:05;8.10;;;2.83;;
50291;SDS011;36190;54.980;73.388;2022-08-19T08:06:50;6.18;;;2.58;;
50291;SDS011;36190;54.980;73.388;2022-08-19T08:09:36;5.65;;;2.50;;
50291;SDS011;36190;54.980;73.388;2022-08-19T08:12:07;6.95;;;2.95;;
50291;SDS011;36190;54.980;73.388;2022-08-19T08:14:38;10.52;;;2.60;;
50291;SDS011;36190;54.980;73.388;2022-08-19T08:17:10;5.47;;;2.42;;
50291;SDS011;36190;54.980;73.388;2022-08-19T08:19:38;5.97;;;2.60;;
50291;SDS011;36190;54.980;73.388;2022-08-19T08:22:06;7.28;;;2.53;;
50291;SDS011;36190;54.980;73.388;2022-08-19T08:24:55;7.35;;;2.83;;
50291;SDS011;36190;54.980;73.388;2022-08-19T08:27:24;8.85;;;2.97;;
50291;SDS011;36190;54.980;73.388;2022-08-19T08:29:54;10.35;;;3.78;;
50291;SDS011;36190;54.980;73.388;2022-08-19T08:32:23;12.60;;;3.97;;
50291;SDS011;36190;54.980;73.388;2022-08-19T08:34:50;14.00;;;3.55;;
50291;SDS011;36190;54.980;73.388;2022-08-19T08:37:19;10.48;;;3.72;;
50291;SDS011;36190;54.980;73.388;2022-08-19T08:39:47;12.98;;;4.53;;
50291;SDS011;36190;54.980;73.388;2022-08-19T08:42:17;13.27;;;4.38;;
50291;SDS011;36190;54.980;73.388;2022-08-19T08:44:52;13.77;;;4.43;;
50291;SDS011;36190;54.980;73.388;2022-08-19T08:47:26;12.75;;;4.07;;
50291;SDS011;36190;54.980;73.388;2022-08-19T08:50:01;16.00;;;4.53;;
50291;SDS011;36190;54.980;73.388;2022-08-19T08:52:31;16.15;;;5.00;;
50291;SDS011;36190;54.980;73.388;2022-08-19T08:55:03;23.88;;;5.20;;
50291;SDS011;36190;54.980;73.388;2022-08-19T08:57:35;20.35;;;6.35;;
50291;SDS011;36190;54.980;73.388;2022-08-19T09:00:07;18.08;;;5.45;;
50291;SDS011;36190;54.980;73.388;2022-08-19T09:02:39;19.90;;;5.30;;
50291;SDS011;36190;54.980;73.388;2022-08-19T09:05:06;19.65;;;5.15;;
50291;SDS011;36190;54.980;73.388;2022-08-19T09:07:39;16.63;;;5.05;;
50291;SDS011;36190;54.980;73.388;2022-08-19T09:10:15;14.95;;;4.60;;
50291;SDS011;36190;54.980;73.388;2022-08-19T09:12:48;8.68;;;3.45;;
50291;SDS011;36190;54.980;73.388;2022-08-19T09:15:28;14.35;;;4.38;;
50291;SDS011;36190;54.980;73.388;2022-08-19T09:18:00;17.63;;;5.50;;
50291;SDS011;36190;54.980;73.388;2022-08-19T09:20:29;16.40;;;5.00;;
50291;SDS011;36190;54.980;73.388;2022-08-19T09:22:57;16.73;;;4.38;;
50291;SDS011;36190;54.980;73.388;2022-08-19T09:25:25;16.50;;;4.43;;
50291;SDS011;36190;54.980;73.388;2022-08-19T09:27:53;10.38;;;4.13;;
50291;SDS011;36190;54.980;73.388;2022-08-19T09:30:22;21.13;;;5.10;;
50291;SDS011;36190;54.980;73.388;2022-08-19T09:32:51;15.77;;;4.82;;
50291;SDS011;36190;54.980;73.388;2022-08-19T09:35:21;13.98;;;4.15;;
50291;SDS011;36190;54.980;73.388;2022-08-19T09:37:51;18.38;;;5.13;;
50291;SDS011;36190;54.980;73.388;2022-08-19T09:40:19;16.75;;;4.78;;
50291;SDS011;36190;54.980;73.388;2022-08-19T09:42:46;13.25;;;4.80;;
50291;SDS011;36190;54.980;73.388;2022-08-19T09:45:14;18.52;;;4.53;;
50291;SDS011;36190;54.980;73.388;2022-08-19T09:47:43;10.50;;;4.53;;
50291;SDS011;36190;54.980;73.388;2022-08-19T09:50:11;8.88;;;4.18;;
50291;SDS011;36190;54.980;73.388;2022-08-19T09:52:40;12.18;;;5.55;;
50291;SDS011;36190;54.980;73.388;2022-08-19T09:55:08;12.82;;;5.10;;
50291;SDS011;36190;54.980;73.388;2022-08-19T09:57:37;10.80;;;5.13;;
50291;SDS011;36190;54.980;73.388;2022-08-19T10:00:06;13.38;;;5.90;;
50291;SDS011;36190;54.980;73.388;2022-08-19T10:02:35;10.77;;;5.10;;
50291;SDS011;36190;54.980;73.388;2022-08-19T10:05:03;11.55;;;4.43;;
50291;SDS011;36190;54.980;73.388;2022-08-19T10:07:49;11.50;;;5.35;;
50291;SDS011;36190;54.980;73.388;2022-08-19T10:10:17;11.18;;;4.57;;
50291;SDS011;36190;54.980;73.388;2022-08-19T10:12:44;10.13;;;4.85;;
50291;SDS011;36190;54.980;73.388;2022-08-19T10:15:12;13.10;;;5.50;;
50291;SDS011;36190;54.980;73.388;2022-08-19T10:17:40;12.38;;;5.28;;
50291;SDS011;36190;54.980;73.388;2022-08-19T10:20:08;9.75;;;5.32;;
50291;SDS011;36190;54.980;73.388;2022-08-19T10:22:36;10.02;;;5.18;;
50291;SDS011;36190;54.980;73.388;2022-08-19T10:25:06;10.32;;;5.28;;
50291;SDS011;36190;54.980;73.388;2022-08-19T10:27:34;12.90;;;4.95;;
50291;SDS011;36190;54.980;73.388;2022-08-19T10:30:02;12.95;;;5.90;;
50291;SDS011;36190;54.980;73.388;2022-08-19T10:32:31;10.52;;;5.43;;
50291;SDS011;36190;54.980;73.388;2022-08-19T10:34:59;12.25;;;6.22;;
50291;SDS011;36190;54.980;73.388;2022-08-19T10:37:26;12.65;;;5.70;;
50291;SDS011;36190;54.980;73.388;2022-08-19T10:39:55;12.07;;;5.65;;
50291;SDS011;36190;54.980;73.388;2022-08-19T10:42:24;11.10;;;4.93;;
50291;SDS011;36190;54.980;73.388;2022-08-19T10:44:52;10.13;;;5.40;;
50291;SDS011;36190;54.980;73.388;2022-08-19T10:47:19;10.70;;;4.97;;
50291;SDS011;36190;54.980;73.388;2022-08-19T10:49:48;10.02;;;4.63;;
50291;SDS011;36190;54.980;73.388;2022-08-19T10:52:33;8.80;;;4.13;;
50291;SDS011;36190;54.980;73.388;2022-08-19T10:55:00;9.48;;;4.30;;
50291;SDS011;36190;54.980;73.388;2022-08-19T10:57:47;11.07;;;4.15;;
50291;SDS011;36190;54.980;73.388;2022-08-19T11:00:14;9.20;;;4.10;;
50291;SDS011;36190;54.980;73.388;2022-08-19T11:02:42;10.07;;;4.32;;
50291;SDS011;36190;54.980;73.388;2022-08-19T11:05:09;8.77;;;4.15;;
50291;SDS011;36190;54.980;73.388;2022-08-19T11:07:37;10.40;;;3.75;;
50291;SDS011;36190;54.980;73.388;2022-08-19T11:10:05;9.77;;;4.10;;
50291;SDS011;36190;54.980;73.388;2022-08-19T11:12:33;9.70;;;3.75;;
50291;SDS011;36190;54.980;73.388;2022-08-19T11:15:06;9.25;;;3.40;;
50291;SDS011;36190;54.980;73.388;2022-08-19T11:17:35;10.05;;;4.20;;
50291;SDS011;36190;54.980;73.388;2022-08-19T11:20:08;8.73;;;3.90;;
50291;SDS011;36190;54.980;73.388;2022-08-19T11:22:37;9.57;;;4.03;;
50291;SDS011;36190;54.980;73.388;2022-08-19T11:25:05;9.23;;;3.75;;
50291;SDS011;36190;54.980;73.388;2022-08-19T11:27:33;7.53;;;3.35;;
50291;SDS011;36190;54.980;73.388;2022-08-19T11:30:06;8.82;;;3.55;;
50291;SDS011;36190;54.980;73.388;2022-08-19T11:32:35;7.28;;;3.53;;
50291;SDS011;36190;54.980;73.388;2022-08-19T11:35:02;7.47;;;3.70;;
50291;SDS011;36190;54.980;73.388;2022-08-19T11:37:30;8.77;;;4.00;;
50291;SDS011;36190;54.980;73.388;2022-08-19T11:40:02;7.88;;;3.83;;
50291;SDS011;36190;54.980;73.388;2022-08-19T11:42:31;8.57;;;3.78;;
50291;SDS011;36190;54.980;73.388;2022-08-19T11:45:17;9.13;;;3.80;;
50291;SDS011;36190;54.980;73.388;2022-08-19T11:47:44;9.25;;;3.80;;
50291;SDS011;36190;54.980;73.388;2022-08-19T11:50:12;8.27;;;3.60;;
50291;SDS011;36190;54.980;73.388;2022-08-19T11:52:40;9.07;;;3.72;;
50291;SDS011;36190;54.980;73.388;2022-08-19T11:55:08;9.38;;;3.58;;
50291;SDS011;36190;54.980;73.388;2022-08-19T11:57:37;7.25;;;3.55;;
50291;SDS011;36190;54.980;73.388;2022-08-19T12:00:06;8.52;;;3.53;;
50291;SDS011;36190;54.980;73.388;2022-08-19T12:02:37;8.02;;;3.58;;
50291;SDS011;36190;54.980;73.388;2022-08-19T12:05:04;7.97;;;3.55;;
50291;SDS011;36190;54.980;73.388;2022-08-19T12:07:32;8.13;;;3.92;;
50291;SDS011;36190;54.980;73.388;2022-08-19T12:10:01;8.82;;;4.25;;
50291;SDS011;36190;54.980;73.388;2022-08-19T12:12:29;8.68;;;4.72;;
50291;SDS011;36190;54.980;73.388;2022-08-19T12:14:56;7.82;;;3.85;;
50291;SDS011;36190;54.980;73.388;2022-08-19T12:17:24;7.05;;;3.58;;
50291;SDS011;36190;54.980;73.388;2022-08-19T12:19:53;7.35;;;3.75;;
50291;SDS011;36190;54.980;73.388;2022-08-19T12:22:21;8.80;;;3.67;;
50291;SDS011;36190;54.980;73.388;2022-08-19T12:24:48;8.70;;;4.20;;
50291;SDS011;36190;54.980;73.388;2022-08-19T12:27:18;8.82;;;3.97;;
50291;SDS011;36190;54.980;73.388;2022-08-19T12:29:45;7.70;;;3.85;;
50291;SDS011;36190;54.980;73.388;2022-08-19T12:32:14;8.57;;;4.05;;
50291;SDS011;36190;54.980;73.388;2022-08-19T12:34:42;7.70;;;3.83;;
50291;SDS011;36190;54.980;73.388;2022-08-19T12:37:11;7.57;;;3.50;;
50291;SDS011;36190;54.980;73.388;2022-08-19T12:39:39;7.43;;;3.35;;
50291;SDS011;36190;54.980;73.388;2022-08-19T12:42:08;7.40;;;3.50;;
50291;SDS011;36190;54.980;73.388;2022-08-19T12:44:36;7.57;;;3.75;;
50291;SDS011;36190;54.980;73.388;2022-08-19T12:47:05;8.02;;;3.90;;
50291;SDS011;36190;54.980;73.388;2022-08-19T12:49:33;7.72;;;3.95;;
50291;SDS011;36190;54.980;73.388;2022-08-19T12:52:02;9.45;;;3.80;;
50291;SDS011;36190;54.980;73.388;2022-08-19T12:54:32;8.63;;;3.92;;
50291;SDS011;36190;54.980;73.388;2022-08-19T12:56:59;8.63;;;4.05;;
50291;SDS011;36190;54.980;73.388;2022-08-19T12:59:26;9.55;;;4.35;;
50291;SDS011;36190;54.980;73.388;2022-08-19T13:01:54;10.38;;;4.18;;
50291;SDS011;36190;54.980;73.388;2022-08-19T13:04:21;9.90;;;4.03;;
50291;SDS011;36190;54.980;73.388;2022-08-19T13:06:49;11.15;;;4.47;;
50291;SDS011;36190;54.980;73.388;2022-08-19T13:09:16;9.45;;;4.85;;
50291;SDS011;36190;54.980;73.388;2022-08-19T13:11:45;12.90;;;5.50;;
50291;SDS011;36190;54.980;73.388;2022-08-19T13:14:13;11.90;;;6.43;;
50291;SDS011;36190;54.980;73.388;2022-08-19T13:16:40;10.90;;;5.35;;
50291;SDS011;36190;54.980;73.388;2022-08-19T13:19:08;12.30;;;5.28;;
50291;SDS011;36190;54.980;73.388;2022-08-19T13:21:37;8.38;;;4.45;;
50291;SDS011;36190;54.980;73.388;2022-08-19T13:24:04;9.65;;;4.40;;
50291;SDS011;36190;54.980;73.388;2022-08-19T13:26:32;9.27;;;4.57;;
50291;SDS011;36190;54.980;73.388;2022-08-19T13:29:00;9.63;;;3.95;;
50291;SDS011;36190;54.980;73.388;2022-08-19T13:31:45;10.73;;;4.43;;
50291;SDS011;36190;54.980;73.388;2022-08-19T13:34:30;8.48;;;4.10;;
50291;SDS011;36190;54.980;73.388;2022-08-19T13:36:59;9.20;;;4.63;;
50291;SDS011;36190;54.980;73.388;2022-08-19T13:39:28;13.43;;;7.15;;
50291;SDS011;36190;54.980;73.388;2022-08-19T13:41:57;11.75;;;6.38;;
50291;SDS011;36190;54.980;73.388;2022-08-19T13:44:27;8.43;;;4.47;;
50291;SDS011;36190;54.980;73.388;2022-08-19T13:46:55;10.52;;;4.68;;
50291;SDS011;36190;54.980;73.388;2022-08-19T13:49:30;10.60;;;5.25;;
50291;SDS011;36190;54.980;73.388;2022-08-19T13:51:58;13.98;;;5.50;;
50291;SDS011;36190;54.980;73.388;2022-08-19T13:54:26;10.48;;;5.13;;
50291;SDS011;36190;54.980;73.388;2022-08-19T13:56:53;11.02;;;5.55;;
50291;SDS011;36190;54.980;73.388;2022-08-19T13:59:21;10.52;;;5.13;;
50291;SDS011;36190;54.980;73.388;2022-08-19T14:01:50;9.40;;;4.72;;
50291;SDS011;36190;54.980;73.388;2022-08-19T14:04:18;12.13;;;5.10;;
50291;SDS011;36190;54.980;73.388;2022-08-19T14:06:45;10.52;;;5.18;;
50291;SDS011;36190;54.980;73.388;2022-08-19T14:09:13;11.77;;;5.57;;
50291;SDS011;36190;54.980;73.388;2022-08-19T14:11:40;12.65;;;5.95;;
50291;SDS011;36190;54.980;73.388;2022-08-19T14:14:07;11.07;;;5.75;;
50291;SDS011;36190;54.980;73.388;2022-08-19T14:16:35;13.57;;;6.38;;
50291;SDS011;36190;54.980;73.388;2022-08-19T14:19:04;11.65;;;6.70;;
50291;SDS011;36190;54.980;73.388;2022-08-19T14:21:32;12.55;;;7.03;;
50291;SDS011;36190;54.980;73.388;2022-08-19T14:24:01;12.98;;;7.78;;
50291;SDS011;36190;54.980;73.388;2022-08-19T14:26:29;12.95;;;7.38;;
50291;SDS011;36190;54.980;73.388;2022-08-19T14:28:56;12.60;;;7.30;;
50291;SDS011;36190;54.980;73.388;2022-08-19T14:31:24;12.85;;;6.65;;
50291;SDS011;36190;54.980;73.388;2022-08-19T14:33:52;13.00;;;7.50;;
50291;SDS011;36190;54.980;73.388;2022-08-19T14:36:21;12.18;;;7.25;;
50291;SDS011;36190;54.980;73.388;2022-08-19T14:38:48;11.45;;;5.82;;
50291;SDS011;36190;54.980;73.388;2022-08-19T14:41:16;10.77;;;5.25;;
50291;SDS011;36190;54.980;73.388;2022-08-19T14:43:44;10.10;;;5.40;;
50291;SDS011;36190;54.980;73.388;2022-08-19T14:46:13;11.10;;;5.70;;